Time;durP1;ratioP1;P1;durP2;ratioP2;P2;SDS_P1;SDS_P2;PMS_P1;PMS_P2;Temp;Humidity;BMP_temperature;BMP_pressure;BME280_temperature;BME280_humidity;BME280_pressure;Samples;Min_cycle;Max_cycle;Signal;HPM_P1;HPM_P2
2023/12/03 00:03:14;;;;;;;33.40;12.37;;;;;;;16.12;100.00;98881.34;31053651;28;20105;-73
2023/12/03 00:18:16;;;;;;;47.37;12.70;;;;;;;16.38;100.00;98859.41;31061072;28;20050;-72
2023/12/03 00:33:18;;;;;;;30.80;9.30;;;;;;;16.59;100.00;98836.13;31039043;28;20066;-78
2023/12/03 00:48:21;;;;;;;35.00;10.60;;;;;;;16.52;100.00;98806.47;31125662;28;20117;-76
2023/12/03 01:03:23;;;;;;;30.97;10.27;;;;;;;16.42;100.00;98755.84;31034194;28;20050;-79
2023/12/03 01:18:25;;;;;;;35.37;13.73;;;;;;;16.36;100.00;98798.88;31101819;28;20058;-76
2023/12/03 01:33:27;;;;;;;34.80;9.80;;;;;;;16.48;100.00;98792.25;31043465;28;20050;-77
2023/12/03 01:48:29;;;;;;;28.57;10.30;;;;;;;16.55;100.00;98774.56;31048181;28;20045;-77
2023/12/03 02:03:31;;;;;;;24.80;10.33;;;;;;;16.60;100.00;98799.28;31083252;28;20047;-77
2023/12/03 02:18:34;;;;;;;35.87;12.30;;;;;;;16.61;100.00;98817.19;31045661;28;20054;-77
2023/12/03 02:33:37;;;;;;;31.50;11.87;;;;;;;16.56;100.00;98798.75;31084416;28;20483;-73
2023/12/03 02:48:39;;;;;;;30.27;9.60;;;;;;;16.77;100.00;98834.28;31063294;28;20054;-73
2023/12/03 03:03:41;;;;;;;31.70;9.33;;;;;;;16.96;100.00;98840.84;31083680;28;20057;-73
2023/12/03 03:18:43;;;;;;;32.33;9.10;;;;;;;16.96;100.00;98805.19;31058778;28;20086;-72
2023/12/03 03:33:45;;;;;;;34.03;10.20;;;;;;;16.87;100.00;98805.41;31072842;28;20387;-73
2023/12/03 03:48:47;;;;;;;31.77;11.33;;;;;;;17.19;100.00;98808.75;31019054;28;20053;-79
2023/12/03 04:03:50;;;;;;;50.13;13.83;;;;;;;17.18;100.00;98802.53;31085524;28;20050;-74
2023/12/03 04:18:52;;;;;;;32.27;9.87;;;;;;;17.00;100.00;98787.28;31121623;28;20061;-73
2023/12/03 04:33:56;;;;;;;40.63;9.67;;;;;;;17.24;100.00;98816.97;31082313;28;20058;-74
2023/12/03 04:48:57;;;;;;;30.87;8.93;;;;;;;17.07;100.00;98791.50;31022512;28;20050;-77
2023/12/03 05:04:00;;;;;;;39.33;9.63;;;;;;;17.11;100.00;98822.19;31063042;28;20136;-72
2023/12/03 05:19:02;;;;;;;29.27;9.67;;;;;;;17.20;100.00;98827.47;31090534;28;20050;-75
2023/12/03 05:34:04;;;;;;;41.03;10.73;;;;;;;17.01;100.00;98790.75;31043489;28;20065;-72
2023/12/03 05:49:08;;;;;;;39.07;12.17;;;;;;;16.93;100.00;98825.38;31046418;28;20064;-74
2023/12/03 06:04:10;;;;;;;45.93;11.93;;;;;;;17.08;100.00;98847.09;31094922;28;20061;-79
2023/12/03 06:19:13;;;;;;;38.53;12.47;;;;;;;17.07;100.00;98862.78;31085706;28;20085;-78
2023/12/03 06:34:15;;;;;;;45.57;12.80;;;;;;;17.15;100.00;98874.81;31048292;28;20141;-79
2023/12/03 06:49:17;;;;;;;34.33;11.03;;;;;;;17.25;100.00;98895.28;31079399;28;20042;-79
2023/12/03 07:04:19;;;;;;;43.00;12.37;;;;;;;17.26;100.00;98874.84;31072360;28;20471;-80
2023/12/03 07:19:24;;;;;;;38.10;11.17;;;;;;;17.61;100.00;98887.41;31137742;28;20454;-80
2023/12/03 07:34:28;;;;;;;34.37;12.67;;;;;;;17.67;100.00;98932.88;31101262;28;20074;-75
2023/12/03 07:49:30;;;;;;;49.57;12.97;;;;;;;17.91;100.00;98921.47;31043843;28;20046;-74
2023/12/03 08:04:32;;;;;;;34.17;11.53;;;;;;;17.96;100.00;99019.53;31052280;28;20050;-74
2023/12/03 08:19:34;;;;;;;41.20;12.63;;;;;;;17.89;100.00;99022.78;31066470;28;20062;-74
2023/12/03 08:34:37;;;;;;;43.23;13.17;;;;;;;17.99;100.00;99054.25;31025466;28;20058;-74
2023/12/03 08:49:39;;;;;;;57.93;15.70;;;;;;;18.12;100.00;99099.75;31066196;28;20089;-73
2023/12/03 09:04:42;;;;;;;38.33;14.20;;;;;;;18.23;100.00;99111.50;31087695;28;20487;-74
2023/12/03 09:19:44;;;;;;;36.47;14.03;;;;;;;18.42;100.00;99133.81;31090411;28;20081;-76
2023/12/03 09:34:46;;;;;;;20.67;10.90;;;;;;;19.35;100.00;99214.25;31034874;28;20140;-75
2023/12/03 09:49:49;;;;;;;17.33;8.67;;;;;;;22.69;100.00;99252.25;31010069;28;20479;-73
2023/12/03 10:04:53;;;;;;;15.77;8.90;;;;;;;23.18;99.12;99307.50;31099587;28;20487;-75
2023/12/03 10:20:20;;;;;;;21.83;10.13;;;;;;;22.89;95.53;99338.84;31064814;28;20450;-77
2023/12/03 10:35:23;;;;;;;10.55;6.22;;;;;;;22.22;96.66;99353.31;31081588;28;20452;-75
2023/12/03 10:50:27;;;;;;;9.60;5.70;;;;;;;21.23;100.00;99379.06;31010221;28;20061;-77
2023/12/03 11:05:38;;;;;;;10.50;5.50;;;;;;;21.69;96.83;99410.72;31044568;28;20061;-77
2023/12/03 11:20:45;;;;;;;5.80;3.77;;;;;;;23.17;92.00;99432.59;31084063;28;20058;-77
2023/12/03 11:35:50;;;;;;;3.88;2.72;;;;;;;23.53;90.04;99491.38;30996653;28;20092;-78
2023/12/03 11:50:54;;;;;;;3.60;2.60;;;;;;;23.77;91.23;99517.00;31124821;28;20046;-76
2023/12/03 12:05:55;;;;;;;;;;;;;;;25.04;57.39;99571.13;31037990;28;20104;-81
2023/12/03 12:21:10;;;;;;;5.50;2.70;;;;;;;24.47;60.54;99603.06;31018633;28;20382;-74
2023/12/03 12:36:15;;;;;;;2.45;2.15;;;;;;;23.05;66.88;99625.75;31070523;28;20049;-73
2023/12/03 12:51:21;;;;;;;3.53;2.37;;;;;;;19.73;72.13;99649.84;31005626;28;20105;-74
2023/12/03 13:06:24;;;;;;;3.30;2.40;;;;;;;18.28;78.95;99695.19;31054096;28;20096;-74
2023/12/03 13:21:26;;;;;;;2.70;1.67;;;;;;;17.35;72.87;99716.78;31057299;28;20046;-74
2023/12/03 13:36:28;;;;;;;3.00;1.70;;;;;;;17.19;73.88;99763.91;31002243;28;20050;-75
2023/12/03 13:51:31;;;;;;;4.03;2.70;;;;;;;16.76;73.45;99781.00;31066522;28;20119;-74
2023/12/03 14:06:33;;;;;;;5.00;2.97;;;;;;;16.48;74.82;99778.44;31026239;28;20046;-82
2023/12/03 14:21:36;;;;;;;4.73;3.00;;;;;;;16.28;73.35;99791.94;31029120;28;20042;-84
2023/12/03 14:36:41;;;;;;;9.67;4.20;;;;;;;16.15;75.19;99837.94;31011882;28;20045;-84
2023/12/03 14:51:44;;;;;;;6.10;3.63;;;;;;;15.70;75.74;99853.25;31088037;28;20050;-77
2023/12/03 15:06:46;;;;;;;5.90;3.90;;;;;;;15.79;75.38;99897.06;31085497;28;20863;-78
2023/12/03 15:21:48;;;;;;;5.37;3.60;;;;;;;15.60;76.80;99934.59;31016042;28;20470;-73
2023/12/03 15:36:50;;;;;;;7.73;3.90;;;;;;;15.35;77.58;99976.63;31113633;28;20144;-74
2023/12/03 15:51:53;;;;;;;4.30;3.30;;;;;;;14.76;71.88;99993.50;31116774;28;20046;-75
2023/12/03 16:06:56;;;;;;;5.30;3.10;;;;;;;14.09;69.09;100021.28;30997802;28;20108;-74
2023/12/03 16:21:59;;;;;;;4.40;2.83;;;;;;;13.65;67.53;100022.00;31094574;28;20054;-76
2023/12/03 16:37:01;;;;;;;6.67;3.57;;;;;;;13.28;67.63;100050.84;31054865;28;20050;-74
2023/12/03 16:52:04;;;;;;;7.50;4.30;;;;;;;12.75;70.47;100071.53;31069443;28;20061;-74
2023/12/03 17:07:08;;;;;;;4.63;3.40;;;;;;;11.79;70.20;100114.16;31122831;28;20077;-75
2023/12/03 17:22:10;;;;;;;20.60;9.40;;;;;;;11.20;71.88;100186.50;31042367;28;20158;-75
2023/12/03 17:37:12;;;;;;;6.43;4.17;;;;;;;11.40;71.80;100193.84;31075618;28;20061;-76
2023/12/03 17:52:14;;;;;;;10.60;5.40;;;;;;;10.45;68.23;100184.47;31108050;28;20160;-78
2023/12/03 18:07:17;;;;;;;9.27;5.07;;;;;;;10.05;67.25;100207.97;31038674;28;20153;-78
2023/12/03 18:22:19;;;;;;;12.50;6.27;;;;;;;9.72;66.91;100222.41;31043962;28;20611;-78
2023/12/03 18:37:21;;;;;;;20.07;8.97;;;;;;;9.40;65.58;100244.53;31016023;28;20050;-79
2023/12/03 18:52:23;;;;;;;11.97;6.53;;;;;;;9.27;66.95;100287.63;31052926;28;20110;-77
2023/12/03 19:07:25;;;;;;;14.00;6.33;;;;;;;9.28;68.42;100285.69;31033504;28;20058;-80
2023/12/03 19:22:27;;;;;;;14.00;6.70;;;;;;;9.09;67.92;100279.72;31120811;28;20084;-73
2023/12/03 19:37:30;;;;;;;13.10;6.97;;;;;;;9.14;68.77;100298.25;31028357;28;20049;-75
2023/12/03 19:52:32;;;;;;;18.23;7.67;;;;;;;8.69;69.21;100273.16;31014837;28;20569;-73
2023/12/03 20:07:34;;;;;;;14.87;8.07;;;;;;;8.60;71.42;100283.69;31045859;28;20077;-75
2023/12/03 20:22:37;;;;;;;13.30;7.03;;;;;;;8.38;71.68;100304.72;31089747;28;20062;-74
2023/12/03 20:37:39;;;;;;;9.80;5.97;;;;;;;8.04;70.76;100341.63;31083886;28;20057;-80
2023/12/03 20:52:41;;;;;;;15.43;7.57;;;;;;;8.07;71.03;100340.81;31080249;28;20145;-81
2023/12/03 21:07:43;;;;;;;13.47;6.87;;;;;;;7.57;67.52;100341.06;31087361;28;20050;-81
2023/12/03 21:22:45;;;;;;;12.60;6.57;;;;;;;7.55;67.83;100335.31;30999140;28;20050;-74
2023/12/03 21:37:48;;;;;;;14.53;7.23;;;;;;;7.29;68.54;100346.56;31042578;28;20156;-76
2023/12/03 21:52:50;;;;;;;13.30;7.23;;;;;;;7.37;67.76;100383.19;31074916;28;20054;-73
2023/12/03 22:07:52;;;;;;;11.13;5.90;;;;;;;7.48;69.43;100408.25;31101649;28;20137;-74
2023/12/03 22:22:54;;;;;;;11.53;6.57;;;;;;;7.52;70.37;100420.59;31067466;28;20062;-74
2023/12/03 22:37:56;;;;;;;12.57;7.10;;;;;;;7.49;68.99;100442.22;31056849;28;20053;-76
2023/12/03 22:52:58;;;;;;;12.20;5.87;;;;;;;7.45;69.43;100473.84;31058712;28;20042;-77
2023/12/03 23:08:01;;;;;;;10.97;6.17;;;;;;;7.55;69.11;100470.38;31016181;28;20077;-76
2023/12/03 23:23:03;;;;;;;11.63;5.63;;;;;;;7.46;69.24;100451.84;31039119;28;20054;-72
2023/12/03 23:38:05;;;;;;;12.60;5.47;;;;;;;7.39;69.86;100467.28;31079984;28;20046;-77
2023/12/03 23:53:08;;;;;;;10.70;5.47;;;;;;;7.28;69.27;100518.63;31068558;28;20066;-78
